sensor_id;sensor_type;location;lat;lon;timestamp;pressure;altitude;pressure_sealevel;temperature;humidity
68654;BME280;55636;51.108;13.622;2023-05-23T00:00:20;99902.19;;;18.64;44.35
68654;BME280;55636;51.108;13.622;2023-05-23T00:01:23;99904.16;;;18.64;44.55
68654;BME280;55636;51.108;13.622;2023-05-23T00:02:26;99901.34;;;18.64;44.74
68654;BME280;55636;51.108;13.622;2023-05-23T00:03:30;99906.13;;;18.63;45.03
68654;BME280;55636;51.108;13.622;2023-05-23T00:04:33;99905.00;;;18.64;45.47
68654;BME280;55636;51.108;13.622;2023-05-23T00:05:37;99894.94;;;18.63;45.45
68654;BME280;55636;51.108;13.622;2023-05-23T00:06:39;99896.09;;;18.62;45.44
68654;BME280;55636;51.108;13.622;2023-05-23T00:07:46;99893.28;;;18.62;45.91
68654;BME280;55636;51.108;13.622;2023-05-23T00:08:48;99893.28;;;18.62;45.51
68654;BME280;55636;51.108;13.622;2023-05-23T00:09:51;99893.28;;;18.62;45.98
68654;BME280;55636;51.108;13.622;2023-05-23T00:10:53;99893.28;;;18.62;45.98
68654;BME280;55636;51.108;13.622;2023-05-23T00:11:56;99890.50;;;18.62;45.89
68654;BME280;55636;51.108;13.622;2023-05-23T00:12:58;99874.88;;;18.61;46.23
68654;BME280;55636;51.108;13.622;2023-05-23T00:14:01;99882.09;;;18.62;46.48
68654;BME280;55636;51.108;13.622;2023-05-23T00:15:04;99882.44;;;18.60;46.46
68654;BME280;55636;51.108;13.622;2023-05-23T00:16:09;99885.25;;;18.60;46.50
68654;BME280;55636;51.108;13.622;2023-05-23T00:17:11;99888.03;;;18.60;46.56
68654;BME280;55636;51.108;13.622;2023-05-23T00:18:14;99879.66;;;18.60;46.83
68654;BME280;55636;51.108;13.622;2023-05-23T00:19:17;99881.63;;;18.60;46.91
68654;BME280;55636;51.108;13.622;2023-05-23T00:20:20;99884.44;;;18.60;47.49
68654;BME280;55636;51.108;13.622;2023-05-23T00:21:22;99890.84;;;18.60;47.74
68654;BME280;55636;51.108;13.622;2023-05-23T00:22:25;99886.88;;;18.61;47.84
68654;BME280;55636;51.108;13.622;2023-05-23T00:23:29;99894.44;;;18.61;48.13
68654;BME280;55636;51.108;13.622;2023-05-23T00:24:31;99892.50;;;18.61;48.79
68654;BME280;55636;51.108;13.622;2023-05-23T00:25:33;99898.09;;;18.61;48.69
68654;BME280;55636;51.108;13.622;2023-05-23T00:26:37;99903.69;;;18.61;49.02
68654;BME280;55636;51.108;13.622;2023-05-23T00:27:39;99890.84;;;18.60;49.21
68654;BME280;55636;51.108;13.622;2023-05-23T00:28:42;99894.78;;;18.59;49.16
68654;BME280;55636;51.108;13.622;2023-05-23T00:29:46;99887.22;;;18.60;49.43
68654;BME280;55636;51.108;13.622;2023-05-23T00:30:49;99891.16;;;18.59;49.73
68654;BME280;55636;51.108;13.622;2023-05-23T00:31:51;99896.75;;;18.59;50.02
68654;BME280;55636;51.108;13.622;2023-05-23T00:32:54;99903.16;;;18.59;50.20
68654;BME280;55636;51.108;13.622;2023-05-23T00:33:56;99915.53;;;18.58;50.69
68654;BME280;55636;51.108;13.622;2023-05-23T00:34:59;99911.88;;;18.58;50.87
68654;BME280;55636;51.108;13.622;2023-05-23T00:36:01;99924.22;;;18.57;51.08
68654;BME280;55636;51.108;13.622;2023-05-23T00:37:04;99924.88;;;18.54;51.32
68654;BME280;55636;51.108;13.622;2023-05-23T00:38:06;99927.16;;;18.52;51.37
68654;BME280;55636;51.108;13.622;2023-05-23T00:39:09;99935.06;;;18.50;51.24
68654;BME280;55636;51.108;13.622;2023-05-23T00:40:21;99929.81;;;18.48;51.31
68654;BME280;55636;51.108;13.622;2023-05-23T00:41:24;99935.69;;;18.47;51.61
68654;BME280;55636;51.108;13.622;2023-05-23T00:42:28;99938.34;;;18.43;51.79
68654;BME280;55636;51.108;13.622;2023-05-23T00:43:30;99942.63;;;18.40;52.10
68654;BME280;55636;51.108;13.622;2023-05-23T00:44:33;99932.06;;;18.37;51.58
68654;BME280;55636;51.108;13.622;2023-05-23T00:45:35;99929.59;;;18.36;52.03
68654;BME280;55636;51.108;13.622;2023-05-23T00:46:38;99929.91;;;18.34;51.64
68654;BME280;55636;51.108;13.622;2023-05-23T00:47:43;99933.53;;;18.35;52.08
68654;BME280;55636;51.108;13.622;2023-05-23T00:48:46;99942.22;;;18.33;52.17
68654;BME280;55636;51.108;13.622;2023-05-23T00:49:48;99937.59;;;18.28;52.52
68654;BME280;55636;51.108;13.622;2023-05-23T00:50:52;99939.56;;;18.28;52.74
68654;BME280;55636;51.108;13.622;2023-05-23T00:51:54;99938.22;;;18.25;52.55
68654;BME280;55636;51.108;13.622;2023-05-23T00:52:59;99931.84;;;18.25;53.11
68654;BME280;55636;51.108;13.622;2023-05-23T00:54:03;99923.78;;;18.23;53.16
68654;BME280;55636;51.108;13.622;2023-05-23T00:55:07;99924.91;;;18.22;52.74
68654;BME280;55636;51.108;13.622;2023-05-23T00:56:09;99919.31;;;18.22;52.68
68654;BME280;55636;51.108;13.622;2023-05-23T00:57:13;99911.28;;;18.21;53.29
68654;BME280;55636;51.108;13.622;2023-05-23T00:58:16;99916.00;;;18.20;53.05
68654;BME280;55636;51.108;13.622;2023-05-23T00:59:18;99909.94;;;18.18;53.29
68654;BME280;55636;51.108;13.622;2023-05-23T01:00:25;99905.16;;;18.19;53.44
68654;BME280;55636;51.108;13.622;2023-05-23T01:01:28;99903.50;;;18.18;53.39
68654;BME280;55636;51.108;13.622;2023-05-23T01:02:32;99909.09;;;18.18;53.62
68654;BME280;55636;51.108;13.622;2023-05-23T01:03:37;99897.09;;;18.17;53.68
68654;BME280;55636;51.108;13.622;2023-05-23T01:04:40;99902.69;;;18.17;54.46
68654;BME280;55636;51.108;13.622;2023-05-23T01:05:43;99903.84;;;18.16;54.37
68654;BME280;55636;51.108;13.622;2023-05-23T01:06:46;99902.19;;;18.15;54.79
68654;BME280;55636;51.108;13.622;2023-05-23T01:07:50;99909.75;;;18.15;54.68
68654;BME280;55636;51.108;13.622;2023-05-23T01:08:53;99903.34;;;18.14;54.73
68654;BME280;55636;51.108;13.622;2023-05-23T01:09:56;99905.31;;;18.14;54.93
68654;BME280;55636;51.108;13.622;2023-05-23T01:11:00;99898.06;;;18.12;55.52
68654;BME280;55636;51.108;13.622;2023-05-23T01:12:28;99892.00;;;18.10;54.74
68654;BME280;55636;51.108;13.622;2023-05-23T01:14:00;99884.75;;;18.09;54.71
68654;BME280;55636;51.108;13.622;2023-05-23T01:15:15;99887.53;;;18.09;54.93
68654;BME280;55636;51.108;13.622;2023-05-23T01:16:31;99877.50;;;18.08;55.28
68654;BME280;55636;51.108;13.622;2023-05-23T01:18:58;99868.63;;;18.06;55.91
68654;BME280;55636;51.108;13.622;2023-05-23T01:20:08;99869.78;;;18.05;56.00
68654;BME280;55636;51.108;13.622;2023-05-23T01:21:16;99873.72;;;18.04;56.29
68654;BME280;55636;51.108;13.622;2023-05-23T01:24:11;99873.19;;;18.02;56.17
68654;BME280;55636;51.108;13.622;2023-05-23T01:27:00;99894.22;;;18.00;56.31
68654;BME280;55636;51.108;13.622;2023-05-23T01:28:10;99898.19;;;17.99;57.09
68654;BME280;55636;51.108;13.622;2023-05-23T01:29:27;99910.19;;;17.99;57.21
68654;BME280;55636;51.108;13.622;2023-05-23T01:30:31;99918.38;;;17.95;57.17
68654;BME280;55636;51.108;13.622;2023-05-23T01:31:42;99920.69;;;17.93;57.18
68654;BME280;55636;51.108;13.622;2023-05-23T01:32:47;99921.00;;;17.92;57.18
68654;BME280;55636;51.108;13.622;2023-05-23T01:33:51;99926.59;;;17.92;57.29
68654;BME280;55636;51.108;13.622;2023-05-23T01:34:55;99914.09;;;17.89;57.16
68654;BME280;55636;51.108;13.622;2023-05-23T01:36:00;99916.38;;;17.87;57.21
68654;BME280;55636;51.108;13.622;2023-05-23T01:37:07;99919.16;;;17.87;57.43
68654;BME280;55636;51.108;13.622;2023-05-23T01:38:11;99917.84;;;17.85;57.46
68654;BME280;55636;51.108;13.622;2023-05-23T01:39:13;99917.03;;;17.84;57.53
68654;BME280;55636;51.108;13.622;2023-05-23T01:40:15;99908.66;;;17.84;57.81
68654;BME280;55636;51.108;13.622;2023-05-23T01:41:18;99912.91;;;17.82;57.75
68654;BME280;55636;51.108;13.622;2023-05-23T01:42:20;99917.66;;;17.81;57.55
68654;BME280;55636;51.108;13.622;2023-05-23T01:43:23;99914.84;;;17.81;57.86
68654;BME280;55636;51.108;13.622;2023-05-23T01:44:26;99908.78;;;17.79;57.52
68654;BME280;55636;51.108;13.622;2023-05-23T01:45:29;99904.00;;;17.79;57.55
68654;BME280;55636;51.108;13.622;2023-05-23T01:46:33;99905.16;;;17.78;58.08
68654;BME280;55636;51.108;13.622;2023-05-23T01:47:38;99905.16;;;17.78;57.58
68654;BME280;55636;51.108;13.622;2023-05-23T01:48:42;99899.06;;;17.76;57.79
68654;BME280;55636;51.108;13.622;2023-05-23T01:49:46;99906.59;;;17.76;57.71
68654;BME280;55636;51.108;13.622;2023-05-23T01:50:50;99911.38;;;17.75;57.73
68654;BME280;55636;51.108;13.622;2023-05-23T01:51:52;99918.63;;;17.76;57.44
68654;BME280;55636;51.108;13.622;2023-05-23T01:52:55;99916.97;;;17.75;57.65
68654;BME280;55636;51.108;13.622;2023-05-23T01:53:58;99916.13;;;17.75;57.45
68654;BME280;55636;51.108;13.622;2023-05-23T01:55:04;99917.28;;;17.74;57.20
68654;BME280;55636;51.108;13.622;2023-05-23T01:56:12;99915.31;;;17.74;57.33
68654;BME280;55636;51.108;13.622;2023-05-23T01:57:15;99916.97;;;17.75;57.98
68654;BME280;55636;51.108;13.622;2023-05-23T01:58:17;99905.28;;;17.73;57.72
68654;BME280;55636;51.108;13.622;2023-05-23T01:59:20;99904.13;;;17.74;57.81
68654;BME280;55636;51.108;13.622;2023-05-23T02:00:22;99899.69;;;17.73;57.98
68654;BME280;55636;51.108;13.622;2023-05-23T02:01:26;99900.03;;;17.72;57.84
68654;BME280;55636;51.108;13.622;2023-05-23T02:02:28;99890.31;;;17.69;57.84
68654;BME280;55636;51.108;13.622;2023-05-23T02:03:31;99884.72;;;17.69;58.36
68654;BME280;55636;51.108;13.622;2023-05-23T02:04:34;99888.97;;;17.67;58.76
68654;BME280;55636;51.108;13.622;2023-05-23T02:05:37;99883.22;;;17.63;58.76
68654;BME280;55636;51.108;13.622;2023-05-23T02:06:39;99878.47;;;17.64;59.08
68654;BME280;55636;51.108;13.622;2023-05-23T02:07:46;99874.81;;;17.63;59.16
68654;BME280;55636;51.108;13.622;2023-05-23T02:08:51;99873.50;;;17.60;59.54
68654;BME280;55636;51.108;13.622;2023-05-23T02:09:54;99871.56;;;17.61;59.15
68654;BME280;55636;51.108;13.622;2023-05-23T02:10:57;99861.00;;;17.58;59.28
68654;BME280;55636;51.108;13.622;2023-05-23T02:11:59;99870.84;;;17.55;59.26
68654;BME280;55636;51.108;13.622;2023-05-23T02:13:02;99864.44;;;17.55;59.69
68654;BME280;55636;51.108;13.622;2023-05-23T02:14:05;99875.09;;;17.53;59.48
68654;BME280;55636;51.108;13.622;2023-05-23T02:15:08;99878.22;;;17.51;59.82
68654;BME280;55636;51.108;13.622;2023-05-23T02:16:11;99877.41;;;17.51;59.93
68654;BME280;55636;51.108;13.622;2023-05-23T02:17:15;99882.75;;;17.47;60.08
68654;BME280;55636;51.108;13.622;2023-05-23T02:18:19;99880.28;;;17.45;60.19
68654;BME280;55636;51.108;13.622;2023-05-23T02:19:24;99876.97;;;17.43;60.33
68654;BME280;55636;51.108;13.622;2023-05-23T02:20:28;99882.56;;;17.43;60.06
68654;BME280;55636;51.108;13.622;2023-05-23T02:21:30;99877.63;;;17.40;60.37
68654;BME280;55636;51.108;13.622;2023-05-23T02:22:37;99875.97;;;17.39;60.51
68654;BME280;55636;51.108;13.622;2023-05-23T02:23:40;99886.66;;;17.37;60.60
68654;BME280;55636;51.108;13.622;2023-05-23T02:24:42;99876.63;;;17.36;60.72
68654;BME280;55636;51.108;13.622;2023-05-23T02:25:47;99877.44;;;17.37;60.37
68654;BME280;55636;51.108;13.622;2023-05-23T02:26:49;99874.16;;;17.35;60.63
68654;BME280;55636;51.108;13.622;2023-05-23T02:27:52;99866.59;;;17.35;60.72
68654;BME280;55636;51.108;13.622;2023-05-23T02:28:55;99870.84;;;17.33;60.86
68654;BME280;55636;51.108;13.622;2023-05-23T02:29:58;99870.53;;;17.34;60.94
68654;BME280;55636;51.108;13.622;2023-05-23T02:31:02;99871.97;;;17.32;61.06
68654;BME280;55636;51.108;13.622;2023-05-23T02:32:04;99866.41;;;17.32;61.01
68654;BME280;55636;51.108;13.622;2023-05-23T02:33:07;99861.66;;;17.32;60.81
68654;BME280;55636;51.108;13.622;2023-05-23T02:34:10;99870.31;;;17.30;61.20
68654;BME280;55636;51.108;13.622;2023-05-23T02:35:12;99865.59;;;17.31;61.12
68654;BME280;55636;51.108;13.622;2023-05-23T02:36:15;99871.16;;;17.31;61.42
68654;BME280;55636;51.108;13.622;2023-05-23T02:37:17;99865.59;;;17.31;61.37
68654;BME280;55636;51.108;13.622;2023-05-23T02:38:20;99854.75;;;17.29;61.73
68654;BME280;55636;51.108;13.622;2023-05-23T02:39:22;99869.19;;;17.32;61.09
68654;BME280;55636;51.108;13.622;2023-05-23T02:40:25;99858.34;;;17.30;61.36
68654;BME280;55636;51.108;13.622;2023-05-23T02:41:29;99859.00;;;17.27;61.26
68654;BME280;55636;51.108;13.622;2023-05-23T02:42:33;99857.84;;;17.28;61.46
68654;BME280;55636;51.108;13.622;2023-05-23T02:43:35;99857.84;;;17.28;61.29
68654;BME280;55636;51.108;13.622;2023-05-23T02:44:39;99862.59;;;17.27;61.14
68654;BME280;55636;51.108;13.622;2023-05-23T02:45:42;99860.63;;;17.28;61.32
68654;BME280;55636;51.108;13.622;2023-05-23T02:46:45;99854.22;;;17.27;61.36
68654;BME280;55636;51.108;13.622;2023-05-23T02:47:47;99858.16;;;17.26;61.29
68654;BME280;55636;51.108;13.622;2023-05-23T02:48:50;99850.63;;;17.27;61.29
68654;BME280;55636;51.108;13.622;2023-05-23T02:49:52;99844.53;;;17.25;61.30
68654;BME280;55636;51.108;13.622;2023-05-23T02:50:55;99848.97;;;17.26;61.23
68654;BME280;55636;51.108;13.622;2023-05-23T02:51:57;99838.94;;;17.25;61.28
68654;BME280;55636;51.108;13.622;2023-05-23T02:52:59;99835.00;;;17.26;61.12
68654;BME280;55636;51.108;13.622;2023-05-23T02:54:02;99844.19;;;17.26;61.30
68654;BME280;55636;51.108;13.622;2023-05-23T02:55:08;99832.53;;;17.24;61.23
68654;BME280;55636;51.108;13.622;2023-05-23T02:56:16;99831.69;;;17.24;61.50
68654;BME280;55636;51.108;13.622;2023-05-23T02:57:20;99828.75;;;17.20;61.48
68654;BME280;55636;51.108;13.622;2023-05-23T02:58:22;99827.91;;;17.20;61.67
68654;BME280;55636;51.108;13.622;2023-05-23T02:59:25;99823.47;;;17.19;61.71
68654;BME280;55636;51.108;13.622;2023-05-23T03:00:28;99827.41;;;17.18;62.09
68654;BME280;55636;51.108;13.622;2023-05-23T03:01:31;99822.13;;;17.16;61.69
68654;BME280;55636;51.108;13.622;2023-05-23T03:02:34;99826.09;;;17.15;61.60
68654;BME280;55636;51.108;13.622;2023-05-23T03:03:36;99823.59;;;17.13;61.88
68654;BME280;55636;51.108;13.622;2023-05-23T03:04:39;99821.13;;;17.12;61.50
68654;BME280;55636;51.108;13.622;2023-05-23T03:05:42;99816.69;;;17.11;61.63
68654;BME280;55636;51.108;13.622;2023-05-23T03:06:45;99815.88;;;17.10;61.74
68654;BME280;55636;51.108;13.622;2023-05-23T03:07:48;99821.44;;;17.10;61.50
68654;BME280;55636;51.108;13.622;2023-05-23T03:08:53;99813.72;;;17.07;61.63
68654;BME280;55636;51.108;13.622;2023-05-23T03:09:56;99808.97;;;17.08;61.40
68654;BME280;55636;51.108;13.622;2023-05-23T03:10:58;99812.88;;;17.07;61.40
68654;BME280;55636;51.108;13.622;2023-05-23T03:12:01;99808.75;;;17.04;61.51
68654;BME280;55636;51.108;13.622;2023-05-23T03:13:04;99809.91;;;17.03;61.58
68654;BME280;55636;51.108;13.622;2023-05-23T03:14:07;99811.88;;;17.03;61.74
68654;BME280;55636;51.108;13.622;2023-05-23T03:15:09;99813.84;;;17.02;61.42
68654;BME280;55636;51.108;13.622;2023-05-23T03:16:15;99811.34;;;17.01;61.33
68654;BME280;55636;51.108;13.622;2023-05-23T03:17:18;99808.88;;;16.99;61.59
68654;BME280;55636;51.108;13.622;2023-05-23T03:18:20;99810.88;;;16.99;61.53
68654;BME280;55636;51.108;13.622;2023-05-23T03:19:23;99809.22;;;16.97;61.43
68654;BME280;55636;51.108;13.622;2023-05-23T03:20:27;99808.41;;;16.97;61.63
68654;BME280;55636;51.108;13.622;2023-05-23T03:21:31;99815.94;;;16.96;61.75
68654;BME280;55636;51.108;13.622;2023-05-23T03:22:34;99812.66;;;16.94;61.52
68654;BME280;55636;51.108;13.622;2023-05-23T03:23:37;99815.44;;;16.94;61.76
68654;BME280;55636;51.108;13.622;2023-05-23T03:24:40;99820.19;;;16.94;61.58
68654;BME280;55636;51.108;13.622;2023-05-23T03:25:44;99816.91;;;16.92;61.56
68654;BME280;55636;51.108;13.622;2023-05-23T03:26:46;99816.91;;;16.92;61.75
68654;BME280;55636;51.108;13.622;2023-05-23T03:27:49;99814.09;;;16.92;61.88
68654;BME280;55636;51.108;13.622;2023-05-23T03:28:51;99816.91;;;16.92;61.69
68654;BME280;55636;51.108;13.622;2023-05-23T03:29:54;99811.94;;;16.89;61.69
68654;BME280;55636;51.108;13.622;2023-05-23T03:30:57;99817.50;;;16.89;61.71
68654;BME280;55636;51.108;13.622;2023-05-23T03:31:59;99805.84;;;16.87;62.07
68654;BME280;55636;51.108;13.622;2023-05-23T03:33:02;99809.47;;;16.87;62.24
68654;BME280;55636;51.108;13.622;2023-05-23T03:34:05;99813.91;;;16.88;62.01
68654;BME280;55636;51.108;13.622;2023-05-23T03:35:08;99811.44;;;16.87;61.79
68654;BME280;55636;51.108;13.622;2023-05-23T03:36:11;99810.31;;;16.88;61.81
68654;BME280;55636;51.108;13.622;2023-05-23T03:37:13;99810.59;;;16.86;62.19
68654;BME280;55636;51.108;13.622;2023-05-23T03:38:16;99810.09;;;16.84;62.48
68654;BME280;55636;51.108;13.622;2023-05-23T03:39:18;99818.16;;;16.86;62.09
68654;BME280;55636;51.108;13.622;2023-05-23T03:40:21;99819.28;;;16.85;62.31
68654;BME280;55636;51.108;13.622;2023-05-23T03:41:24;99813.72;;;16.85;62.52
68654;BME280;55636;51.108;13.622;2023-05-23T03:42:28;99819.28;;;16.85;62.38
68654;BME280;55636;51.108;13.622;2023-05-23T03:43:33;99820.13;;;16.85;62.29
68654;BME280;55636;51.108;13.622;2023-05-23T03:44:35;99824.88;;;16.85;61.99
68654;BME280;55636;51.108;13.622;2023-05-23T03:45:40;99826.00;;;16.84;62.10
68654;BME280;55636;51.108;13.622;2023-05-23T03:46:47;99827.97;;;16.83;62.55
68654;BME280;55636;51.108;13.622;2023-05-23T03:47:51;99826.84;;;16.84;62.55
68654;BME280;55636;51.108;13.622;2023-05-23T03:48:53;99827.97;;;16.83;62.71
68654;BME280;55636;51.108;13.622;2023-05-23T03:49:57;99830.75;;;16.83;62.68
68654;BME280;55636;51.108;13.622;2023-05-23T03:51:01;99826.00;;;16.84;62.86
68654;BME280;55636;51.108;13.622;2023-05-23T03:52:05;99829.63;;;16.84;62.85
68654;BME280;55636;51.108;13.622;2023-05-23T03:53:08;99833.22;;;16.85;62.72
68654;BME280;55636;51.108;13.622;2023-05-23T03:54:11;99839.66;;;16.85;62.88
68654;BME280;55636;51.108;13.622;2023-05-23T03:55:15;99830.44;;;16.85;63.00
68654;BME280;55636;51.108;13.622;2023-05-23T03:56:18;99829.31;;;16.86;62.76
68654;BME280;55636;51.108;13.622;2023-05-23T03:57:21;99831.28;;;16.85;62.81
68654;BME280;55636;51.108;13.622;2023-05-23T03:58:25;99842.13;;;16.87;62.73
68654;BME280;55636;51.108;13.622;2023-05-23T03:59:32;99840.47;;;16.86;63.03
68654;BME280;55636;51.108;13.622;2023-05-23T04:00:37;99846.84;;;16.86;62.99
68654;BME280;55636;51.108;13.622;2023-05-23T04:01:41;99848.50;;;16.87;62.87
68654;BME280;55636;51.108;13.622;2023-05-23T04:02:45;99851.31;;;16.87;63.25
68654;BME280;55636;51.108;13.622;2023-05-23T04:03:51;99844.91;;;16.87;63.27
68654;BME280;55636;51.108;13.622;2023-05-23T04:04:55;99850.16;;;16.88;63.10
68654;BME280;55636;51.108;13.622;2023-05-23T04:05:59;99847.38;;;16.88;63.38
68654;BME280;55636;51.108;13.622;2023-05-23T04:07:02;99848.19;;;16.89;63.59
68654;BME280;55636;51.108;13.622;2023-05-23T04:08:07;99855.75;;;16.88;63.42
68654;BME280;55636;51.108;13.622;2023-05-23T04:09:09;99850.97;;;16.89;63.33
68654;BME280;55636;51.108;13.622;2023-05-23T04:10:15;99850.69;;;16.90;63.60
68654;BME280;55636;51.108;13.622;2023-05-23T04:11:19;99845.91;;;16.91;63.59
68654;BME280;55636;51.108;13.622;2023-05-23T04:12:24;99847.91;;;16.90;63.50
68654;BME280;55636;51.108;13.622;2023-05-23T04:13:27;99845.91;;;16.91;63.47
68654;BME280;55636;51.108;13.622;2023-05-23T04:14:29;99845.09;;;16.90;63.70
68654;BME280;55636;51.108;13.622;2023-05-23T04:15:34;99852.31;;;16.91;63.65
68654;BME280;55636;51.108;13.622;2023-05-23T04:16:41;99858.72;;;16.92;63.49
68654;BME280;55636;51.108;13.622;2023-05-23T04:17:43;99860.38;;;16.93;63.66
68654;BME280;55636;51.108;13.622;2023-05-23T04:18:46;99858.41;;;16.93;63.54
68654;BME280;55636;51.108;13.622;2023-05-23T04:19:50;99860.06;;;16.94;63.84
68654;BME280;55636;51.108;13.622;2023-05-23T04:20:53;99860.38;;;16.93;63.80
68654;BME280;55636;51.108;13.622;2023-05-23T04:21:55;99858.41;;;16.93;63.65
68654;BME280;55636;51.108;13.622;2023-05-23T04:22:58;99857.28;;;16.94;63.73
68654;BME280;55636;51.108;13.622;2023-05-23T04:24:02;99858.09;;;16.95;63.56
68654;BME280;55636;51.108;13.622;2023-05-23T04:25:05;99862.53;;;16.96;63.71
68654;BME280;55636;51.108;13.622;2023-05-23T04:26:12;99862.53;;;16.96;63.86
68654;BME280;55636;51.108;13.622;2023-05-23T04:27:21;99860.56;;;16.96;63.53
68654;BME280;55636;51.108;13.622;2023-05-23T04:28:27;99866.66;;;16.99;63.41
68654;BME280;55636;51.108;13.622;2023-05-23T04:29:30;99863.06;;;16.98;63.61
68654;BME280;55636;51.108;13.622;2023-05-23T04:30:35;99868.63;;;16.98;63.60
68654;BME280;55636;51.108;13.622;2023-05-23T04:31:38;99860.75;;;17.00;63.57
68654;BME280;55636;51.108;13.622;2023-05-23T04:32:40;99856.84;;;17.01;63.56
68654;BME280;55636;51.108;13.622;2023-05-23T04:33:44;99860.44;;;17.02;63.48
68654;BME280;55636;51.108;13.622;2023-05-23T04:34:47;99859.31;;;17.03;63.75
68654;BME280;55636;51.108;13.622;2023-05-23T04:35:49;99867.34;;;17.04;63.36
68654;BME280;55636;51.108;13.622;2023-05-23T04:36:52;99865.41;;;17.05;63.63
68654;BME280;55636;51.108;13.622;2023-05-23T04:37:55;99867.03;;;17.06;63.78
68654;BME280;55636;51.108;13.622;2023-05-23T04:39:01;99859.50;;;17.06;63.56
68654;BME280;55636;51.108;13.622;2023-05-23T04:40:07;99863.94;;;17.07;63.67
68654;BME280;55636;51.108;13.622;2023-05-23T04:41:36;99865.56;;;17.08;63.61
68654;BME280;55636;51.108;13.622;2023-05-23T04:43:06;99865.28;;;17.10;63.63
68654;BME280;55636;51.108;13.622;2023-05-23T04:44:26;99860.50;;;17.10;63.54
68654;BME280;55636;51.108;13.622;2023-05-23T04:45:46;99861.03;;;17.12;63.65
68654;BME280;55636;51.108;13.622;2023-05-23T04:47:09;99868.25;;;17.13;63.41
68654;BME280;55636;51.108;13.622;2023-05-23T04:48:31;99869.09;;;17.14;63.17
68654;BME280;55636;51.108;13.622;2023-05-23T04:49:36;99861.53;;;17.15;63.22
68654;BME280;55636;51.108;13.622;2023-05-23T04:50:39;99867.09;;;17.15;63.41
68654;BME280;55636;51.108;13.622;2023-05-23T04:51:42;99867.09;;;17.15;63.34
68654;BME280;55636;51.108;13.622;2023-05-23T04:52:51;99865.97;;;17.16;63.03
68654;BME280;55636;51.108;13.622;2023-05-23T04:53:54;99865.97;;;17.16;63.08
68654;BME280;55636;51.108;13.622;2023-05-23T04:54:57;99865.97;;;17.16;63.03
68654;BME280;55636;51.108;13.622;2023-05-23T04:56:00;99863.19;;;17.16;62.72
68654;BME280;55636;51.108;13.622;2023-05-23T04:57:03;99854.81;;;17.16;62.84
68654;BME280;55636;51.108;13.622;2023-05-23T04:58:07;99862.84;;;17.17;62.41
68654;BME280;55636;51.108;13.622;2023-05-23T04:59:10;99869.28;;;17.18;62.49
68654;BME280;55636;51.108;13.622;2023-05-23T05:00:13;99867.31;;;17.18;62.50
68654;BME280;55636;51.108;13.622;2023-05-23T05:01:15;99867.31;;;17.18;62.48
68654;BME280;55636;51.108;13.622;2023-05-23T05:02:18;99875.34;;;17.20;62.53
68654;BME280;55636;51.108;13.622;2023-05-23T05:03:20;99869.44;;;17.21;62.23
68654;BME280;55636;51.108;13.622;2023-05-23T05:04:26;99873.56;;;17.24;62.09
68654;BME280;55636;51.108;13.622;2023-05-23T05:05:29;99881.13;;;17.23;62.42
68654;BME280;55636;51.108;13.622;2023-05-23T05:06:31;99878.00;;;17.25;62.31
68654;BME280;55636;51.108;13.622;2023-05-23T05:07:34;99878.81;;;17.25;62.35
68654;BME280;55636;51.108;13.622;2023-05-23T05:08:37;99887.72;;;17.27;62.20
68654;BME280;55636;51.108;13.622;2023-05-23T05:09:42;99884.13;;;17.27;62.41
68654;BME280;55636;51.108;13.622;2023-05-23T05:10:46;99879.34;;;17.27;62.10
68654;BME280;55636;51.108;13.622;2023-05-23T05:11:49;99882.94;;;17.28;62.20
68654;BME280;55636;51.108;13.622;2023-05-23T05:12:53;99878.69;;;17.30;62.21
68654;BME280;55636;51.108;13.622;2023-05-23T05:13:56;99881.19;;;17.32;62.21
68654;BME280;55636;51.108;13.622;2023-05-23T05:14:59;99882.00;;;17.33;62.08
68654;BME280;55636;51.108;13.622;2023-05-23T05:16:02;99887.28;;;17.34;62.04
68654;BME280;55636;51.108;13.622;2023-05-23T05:17:04;99882.53;;;17.35;61.91
68654;BME280;55636;51.108;13.622;2023-05-23T05:18:15;99882.22;;;17.36;61.97
68654;BME280;55636;51.108;13.622;2023-05-23T05:19:19;99878.28;;;17.37;62.06
68654;BME280;55636;51.108;13.622;2023-05-23T05:20:22;99887.13;;;17.39;61.98
68654;BME280;55636;51.108;13.622;2023-05-23T05:21:25;99880.44;;;17.40;62.04
68654;BME280;55636;51.108;13.622;2023-05-23T05:22:28;99882.88;;;17.42;61.81
68654;BME280;55636;51.108;13.622;2023-05-23T05:23:31;99883.41;;;17.44;62.36
68654;BME280;55636;51.108;13.622;2023-05-23T05:24:34;99887.53;;;17.46;62.10
68654;BME280;55636;51.108;13.622;2023-05-23T05:25:36;99879.97;;;17.47;62.45
68654;BME280;55636;51.108;13.622;2023-05-23T05:26:39;99878.84;;;17.48;62.48
68654;BME280;55636;51.108;13.622;2023-05-23T05:27:41;99876.84;;;17.49;62.25
68654;BME280;55636;51.108;13.622;2023-05-23T05:28:47;99883.78;;;17.51;61.93
68654;BME280;55636;51.108;13.622;2023-05-23T05:29:50;99875.09;;;17.53;62.32
68654;BME280;55636;51.108;13.622;2023-05-23T05:30:52;99881.19;;;17.55;62.19
68654;BME280;55636;51.108;13.622;2023-05-23T05:31:56;99888.91;;;17.58;62.08
68654;BME280;55636;51.108;13.622;2023-05-23T05:33:02;99885.84;;;17.59;62.22
68654;BME280;55636;51.108;13.622;2023-05-23T05:34:05;99877.13;;;17.61;62.23
68654;BME280;55636;51.108;13.622;2023-05-23T05:35:08;99880.41;;;17.63;62.29
68654;BME280;55636;51.108;13.622;2023-05-23T05:36:11;99878.13;;;17.65;62.07
68654;BME280;55636;51.108;13.622;2023-05-23T05:37:17;99887.03;;;17.67;62.22
68654;BME280;55636;51.108;13.622;2023-05-23T05:38:19;99878.31;;;17.69;62.03
68654;BME280;55636;51.108;13.622;2023-05-23T05:39:23;99889.66;;;17.72;62.33
68654;BME280;55636;51.108;13.622;2023-05-23T05:40:25;99886.56;;;17.74;62.36